Time;durP1;ratioP1;P1;durP2;ratioP2;P2;SDS_P1;SDS_P2;PMS_P1;PMS_P2;Temp;Humidity;BMP_temperature;BMP_pressure;BME280_temperature;BME280_humidity;BME280_pressure;Samples;Min_cycle;Max_cycle;Signal;HPM_P1;HPM_P2
2022/05/26 00:02:17;;;;;;;;;1.00;1.00;;;;;17.55;61.81;101749.78;5079772;27;45389;-72
2022/05/26 00:04:43;;;;;;;;;0.00;0.00;;;;;17.49;62.21;101740.66;5087535;27;45503;-73
2022/05/26 00:07:09;;;;;;;;;1.00;1.00;;;;;17.52;62.56;101745.63;5132813;27;46259;-72
2022/05/26 00:09:34;;;;;;;;;1.67;0.33;;;;;17.44;62.92;101739.56;5099711;27;45462;-72
2022/05/26 00:12:00;;;;;;;;;0.00;0.00;;;;;17.38;62.79;101736.66;5099889;27;45287;-72
2022/05/26 00:14:25;;;;;;;;;0.00;0.00;;;;;17.36;62.55;101746.75;5098810;27;45280;-72
2022/05/26 00:16:52;;;;;;;;;0.33;0.33;;;;;17.35;61.78;101736.19;5099797;27;45289;-72
2022/05/26 00:19:19;;;;;;;;;1.33;1.00;;;;;17.25;63.02;101732.00;5098562;27;47247;-72
2022/05/26 00:21:47;;;;;;;;;0.00;0.00;;;;;17.33;63.18;101733.69;5098600;27;45657;-72
2022/05/26 00:24:13;;;;;;;;;1.33;1.00;;;;;17.38;63.03;101746.56;5099744;27;45298;-72
2022/05/26 00:26:38;;;;;;;;;1.00;1.00;;;;;17.40;62.61;101756.09;5115401;27;45946;-72
2022/05/26 00:29:04;;;;;;;;;1.00;1.00;;;;;17.29;63.31;101737.81;5099768;27;45319;-73
2022/05/26 00:31:30;;;;;;;;;0.00;0.00;;;;;17.23;63.83;101733.22;5099820;27;45518;-73
2022/05/26 00:33:56;;;;;;;;;1.00;0.00;;;;;17.31;63.38;101748.38;5099832;27;45223;-72
2022/05/26 00:36:37;;;;;;;;;1.00;1.00;;;;;17.25;63.25;101742.75;5099548;27;45472;-73
2022/05/26 00:39:15;;;;;;;;;3.00;0.00;;;;;17.27;63.58;101743.38;5099386;27;46180;-73
2022/05/26 00:41:51;;;;;;;;;1.67;1.67;;;;;17.33;63.50;101755.19;5099581;27;45326;-72
2022/05/26 00:44:17;;;;;;;;;1.00;1.00;;;;;17.30;64.21;101758.28;5099702;27;45170;-73
2022/05/26 00:47:13;;;;;;;;;1.00;1.00;;;;;17.27;63.74;101762.19;5099550;27;45454;-73
2022/05/26 00:49:52;;;;;;;;;0.33;0.33;;;;;17.25;63.69;101761.56;5099529;27;45461;-73
2022/05/26 00:52:22;;;;;;;;;1.00;0.00;;;;;17.23;64.26;101755.53;5099387;27;45401;-72
2022/05/26 00:54:50;;;;;;;;;1.33;1.00;;;;;17.18;63.88;101755.28;5099377;27;45274;-72
2022/05/26 00:57:25;;;;;;;;;0.00;0.00;;;;;17.21;64.47;101759.47;5099108;27;45330;-72
2022/05/26 01:00:10;;;;;;;;;1.00;1.00;;;;;17.21;64.79;101762.16;5099336;27;45412;-72
2022/05/26 01:02:42;;;;;;;;;1.00;1.00;;;;;17.16;64.62;101758.16;5099348;27;45424;-73
2022/05/26 01:05:22;;;;;;;;;0.00;0.00;;;;;17.16;64.85;101754.66;5087569;27;45211;-72
2022/05/26 01:07:48;;;;;;;;;2.00;1.00;;;;;17.13;64.44;101758.56;5078904;27;45390;-73
2022/05/26 01:10:16;;;;;;;;;1.00;1.00;;;;;17.07;64.53;101756.66;5078613;28;45385;-73
2022/05/26 01:12:41;;;;;;;;;0.00;0.00;;;;;17.10;64.64;101758.13;5078571;28;45149;-73
2022/05/26 01:15:15;;;;;;;;;0.00;0.00;;;;;17.11;64.83;101762.44;5078729;27;45501;-72
2022/05/26 01:18:34;;;;;;;;;0.67;0.67;;;;;17.09;64.91;101772.56;5078786;27;45400;-73
2022/05/26 01:21:32;;;;;;;;;1.00;1.00;;;;;17.04;64.65;101767.75;5058920;28;46238;-73
2022/05/26 01:24:10;;;;;;;;;2.00;2.00;;;;;16.99;65.21;101776.38;5077647;27;45380;-72
2022/05/26 01:26:54;;;;;;;;;1.00;1.00;;;;;17.02;65.28;101776.00;5082201;28;45511;-72
2022/05/26 01:29:35;;;;;;;;;1.00;1.00;;;;;17.03;64.84;101774.16;5081874;27;45337;-72
2022/05/26 01:32:18;;;;;;;;;0.00;0.00;;;;;16.99;65.30;101773.69;5082086;28;45434;-72
2022/05/26 01:35:03;;;;;;;;;1.33;1.33;;;;;16.96;65.49;101779.44;5082065;28;45407;-72
2022/05/26 01:37:34;;;;;;;;;1.00;1.00;;;;;16.92;65.62;101776.28;5082039;27;45236;-72
2022/05/26 01:40:03;;;;;;;;;0.67;0.67;;;;;16.94;65.18;101772.63;5080184;28;45921;-73
2022/05/26 01:42:37;;;;;;;;;0.00;0.00;;;;;16.91;65.92;101776.50;5081741;27;46543;-73
2022/05/26 01:45:20;;;;;;;;;1.00;0.00;;;;;16.91;65.78;101781.84;5081734;28;45280;-72
2022/05/26 01:48:38;;;;;;;;;1.00;1.00;;;;;16.87;66.36;101769.84;5081858;28;45335;-72
2022/05/26 01:51:13;;;;;;;;;1.00;0.33;;;;;16.90;65.74;101777.53;5074450;27;46076;-72
2022/05/26 01:53:48;;;;;;;;;0.67;0.67;;;;;16.86;66.11;101777.09;5081572;27;46076;-72
2022/05/26 01:56:25;;;;;;;;;0.33;0.33;;;;;16.84;66.24;101773.75;5081397;28;45329;-72
2022/05/26 01:59:13;;;;;;;;;0.00;0.00;;;;;16.83;66.33;101780.16;5080223;28;45381;-72
2022/05/26 02:01:47;;;;;;;;;0.00;0.00;;;;;16.83;66.34;101773.94;5081570;28;45413;-72
2022/05/26 02:04:21;;;;;;;;;1.00;0.33;;;;;16.83;66.14;101777.47;5113995;27;47243;-72
2022/05/26 02:07:14;;;;;;;;;1.00;1.00;;;;;16.81;66.96;101779.50;5081350;27;45422;-72
2022/05/26 02:09:42;;;;;;;;;2.00;0.33;;;;;16.73;66.26;101769.72;5076760;27;45279;-72
2022/05/26 02:12:31;;;;;;;;;1.67;1.67;;;;;16.70;65.97;101759.34;5081155;27;45365;-72
2022/05/26 02:15:06;;;;;;;;;1.00;1.00;;;;;16.77;65.78;101792.47;5081311;27;45304;-72
2022/05/26 02:17:43;;;;;;;;;0.00;0.00;;;;;16.74;66.53;101797.41;5096906;27;45298;-72
2022/05/26 02:20:13;;;;;;;;;0.00;0.00;;;;;16.63;67.03;101796.03;5081401;27;45245;-72
2022/05/26 02:22:43;;;;;;;;;0.00;0.00;;;;;16.52;68.09;101784.75;5081165;27;45518;-73
2022/05/26 02:25:18;;;;;;;;;0.00;0.00;;;;;16.47;68.55;101792.56;5080953;27;46266;-73
2022/05/26 02:27:46;;;;;;;;;0.00;0.00;;;;;16.35;69.13;101786.00;5096723;27;45323;-73
2022/05/26 02:30:12;;;;;;;;;0.00;0.00;;;;;16.34;69.37;101798.56;5081090;27;45745;-73
2022/05/26 02:32:45;;;;;;;;;0.00;0.00;;;;;16.34;69.99;101805.81;5081038;27;45509;-73
2022/05/26 02:35:21;;;;;;;;;0.33;0.00;;;;;16.28;70.19;101781.38;5081018;27;45371;-72
2022/05/26 02:37:50;;;;;;;;;0.00;0.00;;;;;16.27;70.01;101786.94;5080968;27;45348;-73
2022/05/26 02:40:16;;;;;;;;;2.00;0.00;;;;;16.22;69.91;101782.13;5096477;27;45318;-73
2022/05/26 02:43:03;;;;;;;;;0.00;0.00;;;;;16.25;70.32;101795.16;5080752;27;45299;-73
2022/05/26 02:45:43;;;;;;;;;1.67;0.67;;;;;16.23;70.44;101789.19;5080929;27;45246;-72
2022/05/26 02:48:33;;;;;;;;;0.00;0.00;;;;;16.20;71.09;101797.59;5080809;27;45319;-73
2022/05/26 02:51:10;;;;;;;;;0.00;0.00;;;;;16.19;71.28;101787.84;5081022;27;45437;-73
2022/05/26 02:53:39;;;;;;;;;0.67;0.00;;;;;16.20;71.48;101791.38;5080724;27;45615;-72
2022/05/26 02:56:31;;;;;;;;;0.00;0.00;;;;;16.15;71.86;101787.41;5079146;28;47352;-72
2022/05/26 02:59:15;;;;;;;;;0.00;0.00;;;;;16.13;72.30;101784.06;5079231;28;45422;-72
2022/05/26 03:02:01;;;;;;;;;1.00;1.00;;;;;16.16;71.91;101790.91;5079196;28;45326;-72
2022/05/26 03:04:47;;;;;;;;;0.00;0.00;;;;;16.01;72.10;101777.50;5086356;27;45356;-73
2022/05/26 03:07:18;;;;;;;;;1.00;0.33;;;;;16.12;73.29;101805.72;5101000;27;46136;-73
2022/05/26 03:09:44;;;;;;;;;1.00;0.00;;;;;16.00;73.39;101795.47;5099244;27;45543;-72
2022/05/26 03:12:20;;;;;;;;;0.00;0.00;;;;;15.96;74.14;101810.25;5100877;27;45294;-72
2022/05/26 03:14:46;;;;;;;;;1.00;1.00;;;;;15.85;73.93;101802.63;5100783;27;45448;-73
2022/05/26 03:17:11;;;;;;;;;1.00;1.00;;;;;15.83;74.28;101802.81;5100573;27;45311;-73
2022/05/26 03:19:36;;;;;;;;;1.67;1.67;;;;;15.89;75.43;101820.00;5100790;27;45335;-74
2022/05/26 03:22:02;;;;;;;;;1.00;1.00;;;;;15.84;76.10;101815.22;5100922;27;45293;-74
2022/05/26 03:24:27;;;;;;;;;2.00;2.00;;;;;15.74;76.60;101810.09;5100421;27;45323;-73
2022/05/26 03:26:52;;;;;;;;;3.00;3.00;;;;;15.61;76.39;101804.53;5100532;27;45354;-73
2022/05/26 03:29:18;;;;;;;;;2.00;2.00;;;;;15.57;75.68;101812.13;5100523;27;45346;-73
2022/05/26 03:31:44;;;;;;;;;2.67;2.67;;;;;15.50;76.65;101812.00;5100841;27;45328;-73
2022/05/26 03:42:22;;;;;;;;;1.00;1.00;;;;;15.25;78.12;101827.44;5099689;27;45330;-73
2022/05/26 03:44:47;;;;;;;;;1.00;1.00;;;;;15.21;79.14;101826.13;5100335;27;45340;-73
2022/05/26 03:47:13;;;;;;;;;2.33;2.33;;;;;15.24;77.49;101839.97;5100291;27;46254;-73
2022/05/26 03:49:38;;;;;;;;;2.00;1.00;;;;;15.23;78.61;101835.66;5100329;27;45340;-74
2022/05/26 03:52:04;;;;;;;;;1.67;1.67;;;;;15.20;78.51;101840.53;5100413;27;45322;-74
2022/05/26 03:54:30;;;;;;;;;0.33;0.33;;;;;15.18;79.79;101853.25;5100005;27;45510;-74
2022/05/26 03:56:55;;;;;;;;;2.00;1.00;;;;;15.05;79.66;101841.28;5100073;27;45321;-75
2022/05/26 03:59:21;;;;;;;;;1.00;1.00;;;;;14.96;79.94;101834.31;5100104;27;45350;-75
2022/05/26 04:01:46;;;;;;;;;1.00;1.00;;;;;15.01;79.91;101840.81;5100391;27;45305;-75
2022/05/26 04:04:12;;;;;;;;;3.00;2.00;;;;;14.95;80.22;101840.69;5094890;27;46103;-74
2022/05/26 04:06:37;;;;;;;;;1.00;1.00;;;;;14.94;80.93;101844.38;5079270;27;45293;-75
2022/05/26 04:09:03;;;;;;;;;1.00;1.00;;;;;15.00;80.65;101849.03;5078149;28;45244;-75
2022/05/26 04:11:29;;;;;;;;;1.00;1.00;;;;;14.99;80.17;101847.34;5079522;27;45786;-75
2022/05/26 04:13:54;;;;;;;;;0.00;0.00;;;;;15.01;80.61;101853.38;5079641;27;45511;-75
2022/05/26 04:16:21;;;;;;;;;1.33;1.00;;;;;14.98;80.74;101849.22;5079478;27;46286;-75
2022/05/26 04:18:46;;;;;;;;;1.00;1.00;;;;;15.05;80.81;101856.53;5079488;27;45417;-75
2022/05/26 04:21:13;;;;;;;;;1.33;1.33;;;;;15.04;81.03;101853.00;5079651;27;45417;-75
2022/05/26 04:23:39;;;;;;;;;2.00;2.00;;;;;15.04;81.04;101852.16;5079089;27;45459;-75
2022/05/26 04:26:06;;;;;;;;;2.00;1.00;;;;;15.10;80.78;101865.69;5079205;27;45467;-75
2022/05/26 04:28:32;;;;;;;;;1.00;1.00;;;;;15.10;80.87;101854.16;5077962;28;45649;-74
2022/05/26 04:30:58;;;;;;;;;0.67;0.33;;;;;15.09;80.73;101847.13;5078244;28;45363;-75
2022/05/26 04:33:24;;;;;;;;;1.00;1.00;;;;;15.17;80.77;101857.78;5077896;28;47159;-75
2022/05/26 04:35:49;;;;;;;;;0.00;0.00;;;;;15.15;80.83;101859.81;5079214;27;45351;-75
2022/05/26 04:38:15;;;;;;;;;2.00;2.00;;;;;15.21;80.66;101869.81;5078991;27;45329;-74
2022/05/26 04:40:41;;;;;;;;;1.00;1.00;;;;;15.19;80.88;101850.41;5079130;27;45464;-75
2022/05/26 04:43:07;;;;;;;;;0.00;0.00;;;;;15.23;80.83;101862.41;5079175;27;45426;-74
2022/05/26 04:45:32;;;;;;;;;5.00;2.00;;;;;15.21;80.74;101858.25;5079195;28;45357;-74
2022/05/26 04:47:58;;;;;;;;;1.00;1.00;;;;;15.32;80.64;101865.06;5079099;27;45361;-74
2022/05/26 04:50:24;;;;;;;;;2.00;1.00;;;;;15.34;80.52;101868.38;5079294;28;45282;-74
2022/05/26 04:52:49;;;;;;;;;0.33;0.00;;;;;15.30;80.71;101867.91;5079067;27;45310;-75
2022/05/26 04:55:15;;;;;;;;;1.00;1.00;;;;;15.38;80.52;101869.69;5096222;27;46283;-74
2022/05/26 04:57:40;;;;;;;;;1.00;1.00;;;;;15.42;80.42;101868.34;5082510;27;45275;-75
2022/05/26 05:00:10;;;;;;;;;1.67;1.67;;;;;15.44;80.31;101879.69;5082803;27;45231;-75
2022/05/26 05:02:36;;;;;;;;;1.67;0.67;;;;;15.37;80.26;101866.19;5082463;28;45519;-76
2022/05/26 05:05:02;;;;;;;;;1.00;1.00;;;;;15.39;80.59;101864.16;5092877;27;45382;-75
2022/05/26 05:07:28;;;;;;;;;2.00;0.00;;;;;15.45;80.73;101877.84;5102880;27;45406;-75
2022/05/26 05:09:53;;;;;;;;;1.00;1.00;;;;;15.46;81.22;101871.47;5102960;27;45448;-74
2022/05/26 05:12:21;;;;;;;;;0.67;0.67;;;;;15.50;80.75;101870.09;5094169;27;45988;-74
2022/05/26 05:14:49;;;;;;;;;0.00;0.00;;;;;15.53;80.50;101878.63;5072681;28;46213;-74
2022/05/26 05:17:17;;;;;;;;;0.67;0.00;;;;;15.62;80.70;101889.25;5081469;27;45436;-74
2022/05/26 05:19:43;;;;;;;;;3.33;1.33;;;;;15.65;80.51;101891.56;5082535;28;45373;-75
2022/05/26 05:22:13;;;;;;;;;1.00;0.00;;;;;15.69;80.36;101890.22;5082061;27;45295;-75
2022/05/26 05:24:45;;;;;;;;;1.33;1.33;;;;;15.70;80.39;101894.56;5082018;27;45454;-76
2022/05/26 05:27:26;;;;;;;;;1.33;1.33;;;;;15.72;80.45;101889.88;5082266;27;45227;-74
2022/05/26 05:29:55;;;;;;;;;1.00;1.00;;;;;15.75;80.27;101900.19;5081938;27;45389;-74
2022/05/26 05:32:37;;;;;;;;;1.00;1.00;;;;;15.72;80.68;101895.22;5081842;27;45342;-75
2022/05/26 05:35:09;;;;;;;;;1.67;1.67;;;;;15.82;80.25;101903.00;5082078;27;45409;-74
2022/05/26 05:37:35;;;;;;;;;1.67;1.67;;;;;15.75;80.27;101883.31;5081834;27;45330;-74
2022/05/26 05:40:01;;;;;;;;;3.00;3.00;;;;;15.87;79.76;101907.81;5081858;27;45454;-73
2022/05/26 05:42:28;;;;;;;;;1.00;1.00;;;;;15.85;80.33;101899.13;5080382;28;45646;-73
2022/05/26 05:44:53;;;;;;;;;0.33;0.33;;;;;15.83;80.44;101891.25;5081790;27;46094;-75
2022/05/26 05:47:18;;;;;;;;;1.00;1.00;;;;;15.90;80.28;101907.47;5081785;27;45340;-74
2022/05/26 05:49:44;;;;;;;;;0.00;0.00;;;;;15.95;80.26;101909.59;5081952;27;45391;-73
2022/05/26 05:52:13;;;;;;;;;2.00;1.67;;;;;15.95;79.66;101902.38;5081668;27;45387;-74
2022/05/26 05:54:39;;;;;;;;;1.00;1.00;;;;;16.00;79.74;101913.44;5081409;28;45267;-74
2022/05/26 05:57:05;;;;;;;;;2.00;2.00;;;;;16.06;79.56;101913.72;5080257;28;45242;-73
2022/05/26 05:59:31;;;;;;;;;2.00;2.00;;;;;16.01;79.20;101903.53;5082004;27;45333;-76
2022/05/26 06:01:56;;;;;;;;;2.67;2.33;;;;;16.09;78.85;101918.72;5081563;27;45358;-74
2022/05/26 06:04:22;;;;;;;;;1.00;1.00;;;;;16.07;79.47;101907.34;5085117;27;47042;-74
2022/05/26 06:06:47;;;;;;;;;3.67;3.67;;;;;16.10;79.32;101907.78;5101096;27;45475;-75
2022/05/26 06:09:13;;;;;;;;;4.00;4.00;;;;;16.14;78.97;101906.41;5101919;27;45348;-74
2022/05/26 06:11:40;;;;;;;;;4.33;1.67;;;;;16.24;78.31;101924.09;5101920;27;45376;-73
2022/05/26 06:14:06;;;;;;;;;1.67;1.67;;;;;16.26;78.50;101933.63;5101352;27;45298;-72
2022/05/26 06:16:32;;;;;;;;;1.00;1.00;;;;;16.27;77.70;101935.31;5101769;27;45286;-72
2022/05/26 06:18:58;;;;;;;;;2.67;2.67;;;;;16.23;77.69;101920.59;5101714;27;45270;-72
2022/05/26 06:21:24;;;;;;;;;2.00;2.00;;;;;16.26;77.28;101932.81;5077710;27;45465;-73
2022/05/26 06:23:51;;;;;;;;;2.67;1.00;;;;;16.30;77.20;101935.94;5059162;28;45479;-73
2022/05/26 06:26:17;;;;;;;;;2.00;2.00;;;;;16.22;77.44;101931.50;5059310;28;45453;-73
2022/05/26 06:31:26;;;;;;;;;1.33;1.33;;;;;16.30;77.45;101939.47;5059134;28;45455;-73
2022/05/26 06:39:20;;;;;;;;;3.00;1.50;;;;;16.41;76.60;101949.72;5058553;28;45674;-72
2022/05/26 06:44:30;;;;;;;;;1.00;1.00;;;;;16.54;76.66;101964.38;5058668;28;45647;-73
2022/05/26 06:46:55;;;;;;;;;2.67;2.67;;;;;16.50;76.42;101955.03;5057326;28;45679;-74
2022/05/26 06:49:20;;;;;;;;;0.00;0.00;;;;;16.62;76.03;101971.50;5058783;28;45477;-74
2022/05/26 06:51:46;;;;;;;;;3.00;2.00;;;;;16.61;80.05;101972.53;5058483;28;45614;-73
2022/05/26 06:54:12;;;;;;;;;0.00;0.00;;;;;16.62;75.94;101966.13;5056962;28;48169;-73
2022/05/26 06:56:38;;;;;;;;;1.00;1.00;;;;;16.64;75.38;101972.97;5060359;28;45400;-73
2022/05/26 06:59:03;;;;;;;;;1.00;1.00;;;;;16.68;74.96;101977.97;5058616;28;45348;-73
2022/05/26 07:01:29;;;;;;;;;0.33;0.33;;;;;16.68;75.64;101973.44;5060003;28;45358;-74
2022/05/26 07:03:55;;;;;;;;;1.00;1.00;;;;;16.70;75.31;101971.41;5062315;27;46120;-73
2022/05/26 07:06:27;;;;;;;;;1.00;1.00;;;;;16.75;74.37;101986.94;5100576;27;45279;-73
2022/05/26 07:08:53;;;;;;;;;2.00;1.00;;;;;16.65;73.94;101977.31;5100842;27;45447;-74
2022/05/26 07:11:19;;;;;;;;;3.00;2.00;;;;;16.67;74.31;101982.50;5076320;27;46161;-73
2022/05/26 07:13:45;;;;;;;;;1.33;1.33;;;;;16.64;74.43;101974.84;5077506;27;45543;-75
2022/05/26 07:16:11;;;;;;;;;1.33;1.00;;;;;16.79;74.76;101994.44;5077917;27;45652;-72
2022/05/26 07:18:38;;;;;;;;;0.00;0.00;;;;;16.84;74.89;101993.06;5073515;27;45413;-72
2022/05/26 07:21:06;;;;;;;;;3.00;1.00;;;;;16.93;74.57;102002.69;5059134;28;45329;-72
2022/05/26 07:23:31;;;;;;;;;4.00;2.67;;;;;16.84;75.04;101999.25;5057927;28;47089;-73
2022/05/26 07:25:56;;;;;;;;;1.00;1.00;;;;;16.79;75.37;102021.28;5057676;28;45366;-72
2022/05/26 07:28:23;;;;;;;;;2.00;2.00;;;;;16.69;75.69;102012.69;5064187;28;45496;-73
2022/05/26 07:30:49;;;;;;;;;3.67;3.33;;;;;16.72;76.08;102027.56;5078846;28;45333;-73
2022/05/26 07:33:15;;;;;;;;;1.33;1.33;;;;;16.61;75.75;102013.59;5079416;28;45714;-72
2022/05/26 07:35:40;;;;;;;;;3.33;2.33;;;;;16.62;76.12;102012.59;5078400;27;45717;-72
2022/05/26 07:43:36;;;;;;;;;1.33;1.33;;;;;16.74;76.23;102020.19;5069745;28;45349;-74
2022/05/26 07:46:01;;;;;;;;;3.00;3.00;;;;;16.76;76.01;102023.53;5058798;28;45273;-74
2022/05/26 07:48:26;;;;;;;;;3.00;3.00;;;;;16.82;76.38;102030.00;5066636;28;45287;-75
2022/05/26 07:50:52;;;;;;;;;2.00;2.00;;;;;16.87;76.40;102033.81;5079025;27;45454;-76
2022/05/26 07:53:18;;;;;;;;;2.33;1.00;;;;;16.91;75.35;102028.88;5078472;27;45438;-77
2022/05/26 07:55:44;;;;;;;;;0.33;0.33;;;;;17.10;75.65;102032.06;5073784;28;45228;-76
2022/05/26 07:58:10;;;;;;;;;0.00;0.00;;;;;17.22;75.18;102029.72;5072907;28;45296;-73
2022/05/26 08:00:36;;;;;;;;;0.00;0.00;;;;;17.38;74.92;102026.84;5076889;28;46338;-73
2022/05/26 08:03:02;;;;;;;;;1.00;1.00;;;;;17.46;73.92;102030.44;5077158;28;47478;-73
2022/05/26 08:05:28;;;;;;;;;1.33;1.33;;;;;17.54;73.47;102030.34;5085329;27;45528;-74
2022/05/26 08:07:53;;;;;;;;;0.00;0.00;;;;;17.54;73.39;102038.41;5076478;27;45674;-75
2022/05/26 08:10:20;;;;;;;;;4.33;4.33;;;;;17.47;73.16;102046.38;5078024;27;45698;-75
2022/05/26 08:12:45;;;;;;;;;4.00;3.33;;;;;17.40;73.27;102061.59;5110947;27;47990;-72
2022/05/26 08:15:11;;;;;;;;;5.67;3.33;;;;;17.33;73.34;102055.28;5078989;28;45347;-73
2022/05/26 08:17:37;;;;;;;;;4.00;2.33;;;;;17.27;73.63;102055.00;5078692;28;45354;-72
2022/05/26 08:20:04;;;;;;;;;1.00;1.00;;;;;17.16;74.39;102060.88;5078636;27;45346;-72
2022/05/26 08:22:30;;;;;;;;;2.33;2.00;;;;;17.07;74.53;102054.75;5067810;28;46642;-72
2022/05/26 08:24:57;;;;;;;;;0.00;0.00;;;;;17.04;74.37;102055.09;5058723;28;45776;-72
2022/05/26 08:27:23;;;;;;;;;0.33;0.33;;;;;17.08;74.51;102059.09;5059855;27;45503;-72
2022/05/26 08:29:49;;;;;;;;;1.00;1.00;;;;;17.07;74.57;102065.50;5073989;28;45528;-72
2022/05/26 08:32:16;;;;;;;;;0.00;0.00;;;;;17.08;75.00;102060.94;5081815;27;45420;-72
2022/05/26 08:34:41;;;;;;;;;0.33;0.33;;;;;17.10;75.17;102050.88;5082477;27;45421;-72
2022/05/26 08:37:16;;;;;;;;;0.00;0.00;;;;;17.26;75.44;102055.19;5082633;27;45642;-72
2022/05/26 08:39:41;;;;;;;;;0.00;0.00;;;;;17.44;74.84;102065.56;5081990;27;45433;-72
2022/05/26 08:42:14;;;;;;;;;0.67;0.33;;;;;17.66;74.47;102054.88;5080808;28;47159;-72
2022/05/26 08:44:40;;;;;;;;;1.00;1.00;;;;;17.80;73.81;102061.19;5075670;27;45369;-72
2022/05/26 08:47:10;;;;;;;;;0.00;0.00;;;;;17.83;72.88;102059.97;5082180;27;45341;-72
2022/05/26 08:49:57;;;;;;;;;0.00;0.00;;;;;17.82;72.99;102063.69;5081024;27;45792;-72
2022/05/26 08:52:29;;;;;;;;;0.00;0.00;;;;;17.76;72.30;102068.00;5079045;28;45554;-72
2022/05/26 08:55:02;;;;;;;;;3.33;2.33;;;;;17.52;71.90;102076.22;5080144;28;45413;-72
2022/05/26 08:57:43;;;;;;;;;3.67;3.67;;;;;17.38;73.05;102088.63;5078972;27;45445;-72
2022/05/26 09:00:13;;;;;;;;;3.67;3.67;;;;;17.18;72.84;102090.22;5081667;27;45449;-72
2022/05/26 09:02:39;;;;;;;;;3.33;3.33;;;;;17.01;73.22;102098.44;5082340;27;47616;-73
2022/05/26 09:05:17;;;;;;;;;3.33;2.33;;;;;16.87;74.10;102092.03;5090450;27;45317;-73
2022/05/26 09:13:42;;;;;;;;;2.00;2.00;;;;;16.79;74.05;102088.41;5081284;28;45434;-72
2022/05/26 09:16:09;;;;;;;;;4.00;4.00;;;;;16.86;74.16;102104.63;5096246;27;45655;-73
2022/05/26 09:18:36;;;;;;;;;4.00;4.00;;;;;16.97;74.83;102108.69;5062272;27;45319;-72
2022/05/26 09:21:31;;;;;;;;;0.67;0.67;;;;;17.07;75.62;102110.31;5058952;28;46097;-72
2022/05/26 09:24:24;;;;;;;;;5.00;4.33;;;;;17.26;74.17;102106.25;5052470;28;45845;-73
2022/05/26 09:27:05;;;;;;;;;3.00;3.00;;;;;17.35;73.95;102104.28;5060163;28;45359;-73
2022/05/26 09:29:37;;;;;;;;;2.33;2.33;;;;;17.43;73.35;102104.22;5060336;28;45410;-72
2022/05/26 09:32:05;;;;;;;;;2.33;2.33;;;;;17.62;73.04;102110.84;5058768;28;46775;-72
2022/05/26 09:34:34;;;;;;;;;2.67;2.67;;;;;17.73;72.65;102101.47;5068957;28;45528;-73
2022/05/26 09:37:07;;;;;;;;;2.33;2.00;;;;;17.95;72.07;102119.47;5077838;28;45427;-72
2022/05/26 09:39:42;;;;;;;;;4.33;3.00;;;;;18.03;72.29;102116.69;5079112;28;45423;-73
2022/05/26 09:42:17;;;;;;;;;4.00;4.00;;;;;18.13;70.94;102127.16;5080362;28;45417;-72
2022/05/26 09:45:04;;;;;;;;;5.33;4.33;;;;;18.16;70.42;102127.59;5080787;27;46091;-72
2022/05/26 09:47:44;;;;;;;;;5.67;4.67;;;;;18.23;70.26;102140.31;5081338;28;45311;-73
2022/05/26 09:50:35;;;;;;;;;5.00;5.00;;;;;18.26;69.46;102127.28;5081954;28;45188;-73
2022/05/26 09:53:03;;;;;;;;;6.00;6.00;;;;;18.40;68.89;102130.09;5081614;27;45458;-73
2022/05/26 09:55:41;;;;;;;;;5.00;5.00;;;;;18.44;67.88;102139.47;5081302;27;45993;-72
2022/05/26 09:58:13;;;;;;;;;3.00;3.00;;;;;18.46;68.54;102123.94;5074642;27;45795;-73
2022/05/26 10:00:47;;;;;;;;;5.33;4.00;;;;;18.59;67.64;102136.72;5071806;27;45552;-72
2022/05/26 10:03:31;;;;;;;;;2.67;2.67;;;;;18.69;67.26;102133.66;5078576;27;45354;-72
2022/05/26 10:06:20;;;;;;;;;5.00;4.00;;;;;18.81;66.75;102136.66;5079807;27;46586;-73
2022/05/26 10:08:54;;;;;;;;;2.00;2.00;;;;;18.93;67.17;102129.72;5094283;27;45931;-72
2022/05/26 10:11:57;;;;;;;;;5.00;3.00;;;;;19.10;66.67;102134.84;5079156;28;45654;-72
2022/05/26 10:14:53;;;;;;;;;5.67;4.67;;;;;19.25;65.67;102132.00;5081073;28;45219;-72
2022/05/26 10:17:47;;;;;;;;;4.67;4.67;;;;;19.26;64.55;102112.13;5080981;28;45619;-72
2022/05/26 10:21:00;;;;;;;;;4.00;4.00;;;;;19.34;64.47;102110.28;5081373;27;45266;-72
2022/05/26 10:23:46;;;;;;;;;4.67;4.67;;;;;19.42;63.65;102120.88;5018381;28;45447;-73
2022/05/26 10:26:29;;;;;;;;;4.33;4.00;;;;;19.51;64.04;102130.47;5018459;28;45343;-72
2022/05/26 10:29:17;;;;;;;;;5.33;5.33;;;;;19.62;64.01;102117.44;5067056;28;46167;-72
2022/05/26 10:31:49;;;;;;;;;4.00;4.00;;;;;19.78;63.24;102109.00;5074083;28;45382;-73
2022/05/26 10:34:29;;;;;;;;;5.33;5.33;;;;;19.99;63.40;102119.84;5080943;28;45400;-72
2022/05/26 10:37:26;;;;;;;;;3.00;3.00;;;;;20.14;62.45;102125.09;5060830;28;45301;-73
2022/05/26 10:40:28;;;;;;;;;5.00;5.00;;;;;20.32;63.37;102121.78;5060226;28;45690;-72
2022/05/26 10:43:21;;;;;;;;;4.67;4.33;;;;;20.52;62.23;102123.66;5060627;28;45326;-72
2022/05/26 10:45:49;;;;;;;;;4.00;4.00;;;;;20.56;61.50;102124.91;5059879;28;45240;-72
2022/05/26 10:48:29;;;;;;;;;3.33;3.33;;;;;20.61;61.20;102124.28;5060311;28;45240;-72
2022/05/26 10:51:10;;;;;;;;;2.00;2.00;;;;;20.71;60.95;102118.47;5060310;28;45387;-72
2022/05/26 10:53:49;;;;;;;;;3.00;3.00;;;;;20.98;60.41;102127.38;5060005;28;45478;-72
2022/05/26 10:56:26;;;;;;;;;7.00;7.00;;;;;21.19;59.56;102126.31;5060235;28;45417;-73
2022/05/26 10:59:04;;;;;;;;;4.00;4.00;;;;;21.48;59.93;102119.75;5092755;27;46011;-75
2022/05/26 11:01:40;;;;;;;;;2.33;2.33;;;;;21.76;58.67;102119.44;5060098;28;45464;-75
2022/05/26 11:04:35;;;;;;;;;3.33;2.33;;;;;21.84;57.63;102129.19;5065842;27;45345;-72
2022/05/26 11:07:06;;;;;;;;;3.00;3.00;;;;;21.63;56.35;102112.22;5100885;27;45551;-74
2022/05/26 11:09:49;;;;;;;;;2.33;2.33;;;;;21.67;56.89;102120.75;5089316;27;45380;-73
2022/05/26 11:12:25;;;;;;;;;6.67;4.67;;;;;21.73;57.62;102125.25;5057807;28;45772;-73
2022/05/26 11:18:00;;;;;;;;;4.00;3.33;;;;;21.75;57.24;102112.38;5079031;28;45480;-75
2022/05/26 11:20:41;;;;;;;;;5.00;3.00;;;;;21.88;56.93;102103.34;5079198;27;45432;-74
2022/05/26 11:23:07;;;;;;;;;5.67;5.67;;;;;22.05;55.62;102111.78;5079086;27;45326;-73
2022/05/26 11:25:39;;;;;;;;;4.00;4.00;;;;;22.25;55.04;102121.66;5079488;27;45378;-74
2022/05/26 11:28:13;;;;;;;;;5.00;5.00;;;;;22.38;55.82;102098.22;5080336;28;45401;-74
2022/05/26 11:36:37;;;;;;;;;3.00;3.00;;;;;23.26;54.05;102092.78;5047507;27;45507;-74
2022/05/26 11:39:16;;;;;;;;;4.00;4.00;;;;;23.52;52.44;102101.66;5075251;28;45353;-74
2022/05/26 11:41:58;;;;;;;;;1.33;1.33;;;;;23.69;52.61;102101.88;5078973;27;45488;-75
2022/05/26 11:44:31;;;;;;;;;3.67;3.67;;;;;23.72;52.09;102097.84;5072815;27;45467;-73
2022/05/26 11:47:28;;;;;;;;;2.67;2.33;;;;;23.74;51.21;102103.88;5069701;27;45450;-73
2022/05/26 11:49:57;;;;;;;;;3.00;2.67;;;;;23.84;50.79;102100.59;5065227;28;45383;-74
2022/05/26 11:52:31;;;;;;;;;3.00;3.00;;;;;23.97;51.34;102099.56;5078433;27;45689;-75
2022/05/26 11:54:58;;;;;;;;;4.33;2.67;;;;;24.14;50.42;102098.94;5074183;28;47030;-73
2022/05/26 11:57:33;;;;;;;;;4.00;4.00;;;;;24.34;50.63;102096.72;5058598;28;45377;-74
2022/05/26 12:00:21;;;;;;;;;2.00;1.33;;;;;24.50;49.92;102094.38;5077670;28;45287;-73
2022/05/26 12:02:52;;;;;;;;;3.00;3.00;;;;;24.51;46.81;102097.94;5076611;28;45872;-74
2022/05/26 12:05:29;;;;;;;;;2.33;1.33;;;;;24.60;49.91;102096.50;5079720;27;46647;-74
2022/05/26 12:08:01;;;;;;;;;3.33;2.67;;;;;24.64;48.56;102094.97;5078910;28;45359;-73
2022/05/26 12:10:28;;;;;;;;;3.00;3.00;;;;;24.76;48.33;102099.56;5078719;28;45651;-74
2022/05/26 12:13:19;;;;;;;;;1.00;1.00;;;;;24.89;47.55;102102.06;5072300;28;45500;-73
2022/05/26 12:16:15;;;;;;;;;5.00;4.33;;;;;24.87;46.61;102111.50;5077829;27;45533;-74
2022/05/26 12:19:00;;;;;;;;;1.00;1.00;;;;;24.74;46.00;102107.13;5078296;27;45386;-74
2022/05/26 12:21:28;;;;;;;;;1.00;1.00;;;;;24.56;45.65;102108.91;5094537;27;45378;-73
2022/05/26 12:23:56;;;;;;;;;3.00;1.67;;;;;24.40;46.14;102110.44;5078677;28;45324;-73
2022/05/26 12:26:28;;;;;;;;;2.00;2.00;;;;;24.30;45.92;102097.44;5094424;27;47403;-73
2022/05/26 12:28:54;;;;;;;;;3.00;3.00;;;;;24.15;45.55;102092.47;5078647;27;45531;-74